sensor_id;sensor_type;location;lat;lon;timestamp;P1;durP1;ratioP1;P2;durP2;ratioP2
62790;SDS011;48830;53.426;10.300;2023-04-03T00:00:18;8.80;;;2.37;;
62790;SDS011;48830;53.426;10.300;2023-04-03T00:02:44;8.50;;;2.20;;
62790;SDS011;48830;53.426;10.300;2023-04-03T00:05:10;5.87;;;1.93;;
62790;SDS011;48830;53.426;10.300;2023-04-03T00:07:35;3.93;;;2.10;;
62790;SDS011;48830;53.426;10.300;2023-04-03T00:10:01;6.43;;;2.17;;
62790;SDS011;48830;53.426;10.300;2023-04-03T00:12:26;7.50;;;2.10;;
62790;SDS011;48830;53.426;10.300;2023-04-03T00:14:51;7.30;;;2.20;;
62790;SDS011;48830;53.426;10.300;2023-04-03T00:17:17;4.97;;;2.03;;
62790;SDS011;48830;53.426;10.300;2023-04-03T00:19:42;9.93;;;2.00;;
62790;SDS011;48830;53.426;10.300;2023-04-03T00:22:08;6.77;;;2.17;;
62790;SDS011;48830;53.426;10.300;2023-04-03T00:24:33;6.67;;;2.13;;
62790;SDS011;48830;53.426;10.300;2023-04-03T00:26:59;6.43;;;2.07;;
62790;SDS011;48830;53.426;10.300;2023-04-03T00:29:24;7.93;;;2.47;;
62790;SDS011;48830;53.426;10.300;2023-04-03T00:31:50;6.13;;;2.27;;
62790;SDS011;48830;53.426;10.300;2023-04-03T00:34:15;5.23;;;2.00;;
62790;SDS011;48830;53.426;10.300;2023-04-03T00:36:41;5.50;;;1.90;;
62790;SDS011;48830;53.426;10.300;2023-04-03T00:39:06;6.30;;;2.20;;
62790;SDS011;48830;53.426;10.300;2023-04-03T00:41:31;6.33;;;2.10;;
62790;SDS011;48830;53.426;10.300;2023-04-03T00:43:57;8.03;;;2.63;;
62790;SDS011;48830;53.426;10.300;2023-04-03T00:46:22;4.10;;;1.70;;
62790;SDS011;48830;53.426;10.300;2023-04-03T00:48:48;8.30;;;2.30;;
62790;SDS011;48830;53.426;10.300;2023-04-03T00:51:19;7.03;;;2.50;;
62790;SDS011;48830;53.426;10.300;2023-04-03T00:56:21;7.70;;;1.83;;
62790;SDS011;48830;53.426;10.300;2023-04-03T00:58:59;9.03;;;2.70;;
62790;SDS011;48830;53.426;10.300;2023-04-03T01:01:28;9.60;;;2.47;;
62790;SDS011;48830;53.426;10.300;2023-04-03T01:03:55;4.73;;;1.90;;
62790;SDS011;48830;53.426;10.300;2023-04-03T01:06:24;6.10;;;2.23;;
62790;SDS011;48830;53.426;10.300;2023-04-03T01:08:52;5.73;;;1.90;;
62790;SDS011;48830;53.426;10.300;2023-04-03T01:11:19;8.10;;;2.00;;
62790;SDS011;48830;53.426;10.300;2023-04-03T01:13:46;8.27;;;2.20;;
62790;SDS011;48830;53.426;10.300;2023-04-03T01:16:12;4.67;;;1.90;;
62790;SDS011;48830;53.426;10.300;2023-04-03T01:18:38;5.60;;;2.47;;
62790;SDS011;48830;53.426;10.300;2023-04-03T01:24:34;4.10;;;2.00;;
62790;SDS011;48830;53.426;10.300;2023-04-03T01:27:06;5.23;;;1.97;;
62790;SDS011;48830;53.426;10.300;2023-04-03T01:29:34;5.63;;;1.83;;
62790;SDS011;48830;53.426;10.300;2023-04-03T01:32:00;8.33;;;2.23;;
62790;SDS011;48830;53.426;10.300;2023-04-03T01:34:28;6.27;;;2.10;;
62790;SDS011;48830;53.426;10.300;2023-04-03T01:36:55;8.73;;;2.40;;
62790;SDS011;48830;53.426;10.300;2023-04-03T01:39:21;6.00;;;2.20;;
62790;SDS011;48830;53.426;10.300;2023-04-03T01:41:48;7.20;;;2.13;;
62790;SDS011;48830;53.426;10.300;2023-04-03T01:44:34;7.50;;;2.10;;
62790;SDS011;48830;53.426;10.300;2023-04-03T01:47:00;6.63;;;2.40;;
62790;SDS011;48830;53.426;10.300;2023-04-03T01:49:27;5.13;;;2.33;;
62790;SDS011;48830;53.426;10.300;2023-04-03T01:51:53;7.50;;;2.37;;
62790;SDS011;48830;53.426;10.300;2023-04-03T01:54:18;7.67;;;2.20;;
62790;SDS011;48830;53.426;10.300;2023-04-03T01:56:44;7.30;;;2.30;;
62790;SDS011;48830;53.426;10.300;2023-04-03T01:59:10;6.57;;;2.17;;
62790;SDS011;48830;53.426;10.300;2023-04-03T02:01:35;5.23;;;1.83;;
62790;SDS011;48830;53.426;10.300;2023-04-03T02:04:01;8.60;;;2.30;;
62790;SDS011;48830;53.426;10.300;2023-04-03T02:06:26;7.57;;;2.10;;
62790;SDS011;48830;53.426;10.300;2023-04-03T02:08:52;6.10;;;2.97;;
62790;SDS011;48830;53.426;10.300;2023-04-03T02:11:17;7.17;;;2.10;;
62790;SDS011;48830;53.426;10.300;2023-04-03T02:13:42;6.30;;;2.10;;
62790;SDS011;48830;53.426;10.300;2023-04-03T02:16:08;7.30;;;2.30;;
62790;SDS011;48830;53.426;10.300;2023-04-03T02:18:35;6.70;;;2.07;;
62790;SDS011;48830;53.426;10.300;2023-04-03T02:21:01;8.47;;;2.10;;
62790;SDS011;48830;53.426;10.300;2023-04-03T02:23:26;6.27;;;1.70;;
62790;SDS011;48830;53.426;10.300;2023-04-03T02:25:52;5.53;;;2.27;;
62790;SDS011;48830;53.426;10.300;2023-04-03T02:28:17;5.20;;;2.10;;
62790;SDS011;48830;53.426;10.300;2023-04-03T02:30:42;8.33;;;2.30;;
62790;SDS011;48830;53.426;10.300;2023-04-03T02:33:09;6.67;;;2.40;;
62790;SDS011;48830;53.426;10.300;2023-04-03T02:35:35;5.90;;;2.30;;
62790;SDS011;48830;53.426;10.300;2023-04-03T02:38:01;4.90;;;1.97;;
62790;SDS011;48830;53.426;10.300;2023-04-03T02:40:27;7.07;;;2.17;;
62790;SDS011;48830;53.426;10.300;2023-04-03T02:42:53;6.30;;;2.00;;
62790;SDS011;48830;53.426;10.300;2023-04-03T02:45:19;5.93;;;2.20;;
62790;SDS011;48830;53.426;10.300;2023-04-03T02:47:44;7.30;;;1.93;;
62790;SDS011;48830;53.426;10.300;2023-04-03T02:50:10;5.33;;;2.00;;
62790;SDS011;48830;53.426;10.300;2023-04-03T02:52:35;6.53;;;2.30;;
62790;SDS011;48830;53.426;10.300;2023-04-03T02:55:01;9.13;;;2.30;;
62790;SDS011;48830;53.426;10.300;2023-04-03T02:57:26;3.93;;;1.93;;
62790;SDS011;48830;53.426;10.300;2023-04-03T02:59:52;7.70;;;2.07;;
62790;SDS011;48830;53.426;10.300;2023-04-03T03:02:17;8.13;;;2.57;;
62790;SDS011;48830;53.426;10.300;2023-04-03T03:04:43;6.67;;;1.90;;
62790;SDS011;48830;53.426;10.300;2023-04-03T03:07:08;8.47;;;2.20;;
62790;SDS011;48830;53.426;10.300;2023-04-03T03:09:33;7.93;;;1.83;;
62790;SDS011;48830;53.426;10.300;2023-04-03T03:11:59;6.40;;;2.10;;
62790;SDS011;48830;53.426;10.300;2023-04-03T03:14:25;7.30;;;2.20;;
62790;SDS011;48830;53.426;10.300;2023-04-03T03:16:50;5.90;;;2.10;;
62790;SDS011;48830;53.426;10.300;2023-04-03T03:19:16;5.97;;;2.20;;
62790;SDS011;48830;53.426;10.300;2023-04-03T03:21:42;6.23;;;2.17;;
62790;SDS011;48830;53.426;10.300;2023-04-03T03:24:07;6.60;;;1.97;;
62790;SDS011;48830;53.426;10.300;2023-04-03T03:26:33;11.13;;;2.20;;
62790;SDS011;48830;53.426;10.300;2023-04-03T03:29:00;6.13;;;2.03;;
62790;SDS011;48830;53.426;10.300;2023-04-03T03:31:26;6.70;;;2.00;;
62790;SDS011;48830;53.426;10.300;2023-04-03T03:33:51;5.23;;;1.97;;
62790;SDS011;48830;53.426;10.300;2023-04-03T03:36:17;5.80;;;1.97;;
62790;SDS011;48830;53.426;10.300;2023-04-03T03:38:43;7.40;;;1.93;;
62790;SDS011;48830;53.426;10.300;2023-04-03T03:41:09;6.07;;;1.80;;
62790;SDS011;48830;53.426;10.300;2023-04-03T03:43:34;7.97;;;1.90;;
62790;SDS011;48830;53.426;10.300;2023-04-03T03:46:01;5.73;;;1.97;;
62790;SDS011;48830;53.426;10.300;2023-04-03T03:48:27;5.77;;;1.77;;
62790;SDS011;48830;53.426;10.300;2023-04-03T03:50:52;5.27;;;1.93;;
62790;SDS011;48830;53.426;10.300;2023-04-03T03:53:22;6.10;;;1.90;;
62790;SDS011;48830;53.426;10.300;2023-04-03T03:55:51;5.87;;;1.90;;
62790;SDS011;48830;53.426;10.300;2023-04-03T03:58:19;7.30;;;1.90;;
62790;SDS011;48830;53.426;10.300;2023-04-03T04:00:44;6.80;;;2.00;;
62790;SDS011;48830;53.426;10.300;2023-04-03T04:03:10;6.17;;;2.10;;
62790;SDS011;48830;53.426;10.300;2023-04-03T04:05:35;4.80;;;1.70;;
62790;SDS011;48830;53.426;10.300;2023-04-03T04:08:02;4.03;;;1.60;;
62790;SDS011;48830;53.426;10.300;2023-04-03T04:10:27;5.40;;;1.97;;
62790;SDS011;48830;53.426;10.300;2023-04-03T04:12:54;4.73;;;1.60;;
62790;SDS011;48830;53.426;10.300;2023-04-03T04:15:22;4.53;;;1.70;;
62790;SDS011;48830;53.426;10.300;2023-04-03T04:17:50;4.93;;;1.80;;
62790;SDS011;48830;53.426;10.300;2023-04-03T04:20:16;4.73;;;1.57;;
62790;SDS011;48830;53.426;10.300;2023-04-03T04:22:41;8.03;;;1.80;;
62790;SDS011;48830;53.426;10.300;2023-04-03T04:25:08;3.87;;;1.60;;
62790;SDS011;48830;53.426;10.300;2023-04-03T04:27:35;6.10;;;1.67;;
62790;SDS011;48830;53.426;10.300;2023-04-03T04:30:03;4.63;;;1.60;;
62790;SDS011;48830;53.426;10.300;2023-04-03T04:32:30;7.97;;;1.70;;
62790;SDS011;48830;53.426;10.300;2023-04-03T04:34:56;3.57;;;1.43;;
62790;SDS011;48830;53.426;10.300;2023-04-03T04:37:21;5.43;;;1.73;;
62790;SDS011;48830;53.426;10.300;2023-04-03T04:39:47;6.80;;;1.77;;
62790;SDS011;48830;53.426;10.300;2023-04-03T04:42:12;3.60;;;1.50;;
62790;SDS011;48830;53.426;10.300;2023-04-03T04:44:39;5.47;;;2.07;;
62790;SDS011;48830;53.426;10.300;2023-04-03T04:47:05;3.40;;;1.50;;
62790;SDS011;48830;53.426;10.300;2023-04-03T04:49:31;7.17;;;1.70;;
62790;SDS011;48830;53.426;10.300;2023-04-03T04:51:57;4.20;;;1.70;;
62790;SDS011;48830;53.426;10.300;2023-04-03T04:54:27;4.47;;;1.80;;
62790;SDS011;48830;53.426;10.300;2023-04-03T04:56:53;3.97;;;1.80;;
62790;SDS011;48830;53.426;10.300;2023-04-03T04:59:19;7.67;;;2.03;;
62790;SDS011;48830;53.426;10.300;2023-04-03T05:01:44;6.00;;;2.10;;
62790;SDS011;48830;53.426;10.300;2023-04-03T05:04:14;5.37;;;2.03;;
62790;SDS011;48830;53.426;10.300;2023-04-03T05:06:40;4.67;;;1.70;;
62790;SDS011;48830;53.426;10.300;2023-04-03T05:09:11;5.17;;;1.63;;
62790;SDS011;48830;53.426;10.300;2023-04-03T05:11:37;6.43;;;2.00;;
62790;SDS011;48830;53.426;10.300;2023-04-03T05:14:05;8.30;;;2.53;;
62790;SDS011;48830;53.426;10.300;2023-04-03T05:16:32;6.53;;;2.00;;
62790;SDS011;48830;53.426;10.300;2023-04-03T05:18:58;3.57;;;1.63;;
62790;SDS011;48830;53.426;10.300;2023-04-03T05:21:24;4.23;;;2.07;;
62790;SDS011;48830;53.426;10.300;2023-04-03T05:23:51;4.77;;;1.63;;
62790;SDS011;48830;53.426;10.300;2023-04-03T05:26:18;3.63;;;1.60;;
62790;SDS011;48830;53.426;10.300;2023-04-03T05:28:45;6.67;;;2.00;;
62790;SDS011;48830;53.426;10.300;2023-04-03T05:31:12;8.27;;;1.90;;
62790;SDS011;48830;53.426;10.300;2023-04-03T05:33:38;5.40;;;1.70;;
62790;SDS011;48830;53.426;10.300;2023-04-03T05:36:06;3.63;;;1.53;;
62790;SDS011;48830;53.426;10.300;2023-04-03T05:38:36;6.17;;;1.90;;
62790;SDS011;48830;53.426;10.300;2023-04-03T05:41:02;6.90;;;1.90;;
62790;SDS011;48830;53.426;10.300;2023-04-03T05:43:27;3.80;;;1.50;;
62790;SDS011;48830;53.426;10.300;2023-04-03T05:45:54;4.23;;;1.70;;
62790;SDS011;48830;53.426;10.300;2023-04-03T05:48:21;3.50;;;1.37;;
62790;SDS011;48830;53.426;10.300;2023-04-03T05:50:47;6.90;;;1.60;;
62790;SDS011;48830;53.426;10.300;2023-04-03T05:53:20;6.77;;;1.70;;
62790;SDS011;48830;53.426;10.300;2023-04-03T05:55:50;6.53;;;1.80;;
62790;SDS011;48830;53.426;10.300;2023-04-03T05:58:16;5.30;;;1.70;;
62790;SDS011;48830;53.426;10.300;2023-04-03T06:00:44;8.80;;;1.73;;
62790;SDS011;48830;53.426;10.300;2023-04-03T06:03:10;5.10;;;1.53;;
62790;SDS011;48830;53.426;10.300;2023-04-03T06:05:36;5.33;;;1.80;;
62790;SDS011;48830;53.426;10.300;2023-04-03T06:08:02;5.33;;;1.80;;
62790;SDS011;48830;53.426;10.300;2023-04-03T06:10:29;4.53;;;1.60;;
62790;SDS011;48830;53.426;10.300;2023-04-03T06:12:55;4.17;;;1.70;;
62790;SDS011;48830;53.426;10.300;2023-04-03T06:15:22;5.63;;;1.60;;
62790;SDS011;48830;53.426;10.300;2023-04-03T06:17:48;3.97;;;1.40;;
62790;SDS011;48830;53.426;10.300;2023-04-03T06:20:13;5.93;;;2.23;;
62790;SDS011;48830;53.426;10.300;2023-04-03T06:22:39;6.30;;;1.90;;
62790;SDS011;48830;53.426;10.300;2023-04-03T06:25:05;6.50;;;2.20;;
62790;SDS011;48830;53.426;10.300;2023-04-03T06:27:31;6.57;;;1.80;;
62790;SDS011;48830;53.426;10.300;2023-04-03T06:29:56;9.90;;;2.10;;
62790;SDS011;48830;53.426;10.300;2023-04-03T06:32:22;7.10;;;2.10;;
62790;SDS011;48830;53.426;10.300;2023-04-03T06:34:48;7.53;;;2.20;;
62790;SDS011;48830;53.426;10.300;2023-04-03T06:37:17;8.50;;;2.30;;
62790;SDS011;48830;53.426;10.300;2023-04-03T06:39:44;11.50;;;2.43;;
62790;SDS011;48830;53.426;10.300;2023-04-03T06:42:10;11.60;;;2.20;;
62790;SDS011;48830;53.426;10.300;2023-04-03T06:44:44;12.77;;;2.70;;
62790;SDS011;48830;53.426;10.300;2023-04-03T06:47:13;6.77;;;1.70;;
62790;SDS011;48830;53.426;10.300;2023-04-03T06:49:40;8.50;;;2.00;;
62790;SDS011;48830;53.426;10.300;2023-04-03T06:52:06;4.70;;;1.60;;
62790;SDS011;48830;53.426;10.300;2023-04-03T06:54:32;5.63;;;1.60;;
62790;SDS011;48830;53.426;10.300;2023-04-03T06:56:57;3.90;;;1.47;;
62790;SDS011;48830;53.426;10.300;2023-04-03T06:59:23;9.30;;;2.00;;
62790;SDS011;48830;53.426;10.300;2023-04-03T07:01:48;6.60;;;1.60;;
62790;SDS011;48830;53.426;10.300;2023-04-03T07:04:14;5.03;;;1.70;;
62790;SDS011;48830;53.426;10.300;2023-04-03T07:06:40;5.50;;;1.40;;
62790;SDS011;48830;53.426;10.300;2023-04-03T07:09:07;4.70;;;1.70;;
62790;SDS011;48830;53.426;10.300;2023-04-03T07:11:34;4.33;;;1.60;;
62790;SDS011;48830;53.426;10.300;2023-04-03T07:13:59;4.57;;;1.63;;
62790;SDS011;48830;53.426;10.300;2023-04-03T07:16:25;6.67;;;2.03;;
62790;SDS011;48830;53.426;10.300;2023-04-03T07:18:51;6.70;;;1.93;;
62790;SDS011;48830;53.426;10.300;2023-04-03T07:21:17;3.90;;;1.50;;
62790;SDS011;48830;53.426;10.300;2023-04-03T07:23:42;6.40;;;1.80;;
62790;SDS011;48830;53.426;10.300;2023-04-03T07:26:08;6.70;;;1.97;;
62790;SDS011;48830;53.426;10.300;2023-04-03T07:28:34;3.83;;;1.40;;
62790;SDS011;48830;53.426;10.300;2023-04-03T07:31:00;4.80;;;1.80;;
62790;SDS011;48830;53.426;10.300;2023-04-03T07:33:26;5.43;;;1.57;;
62790;SDS011;48830;53.426;10.300;2023-04-03T07:35:51;4.67;;;1.50;;
62790;SDS011;48830;53.426;10.300;2023-04-03T07:38:17;5.00;;;1.50;;
62790;SDS011;48830;53.426;10.300;2023-04-03T07:40:50;4.07;;;1.60;;
62790;SDS011;48830;53.426;10.300;2023-04-03T07:43:17;3.23;;;1.60;;
62790;SDS011;48830;53.426;10.300;2023-04-03T07:45:45;7.93;;;1.70;;
62790;SDS011;48830;53.426;10.300;2023-04-03T07:48:12;4.10;;;1.40;;
62790;SDS011;48830;53.426;10.300;2023-04-03T07:50:41;4.43;;;1.97;;
62790;SDS011;48830;53.426;10.300;2023-04-03T07:53:07;4.00;;;1.50;;
62790;SDS011;48830;53.426;10.300;2023-04-03T07:55:33;5.47;;;1.70;;
62790;SDS011;48830;53.426;10.300;2023-04-03T07:57:58;4.13;;;1.30;;
62790;SDS011;48830;53.426;10.300;2023-04-03T08:00:24;3.63;;;1.30;;
62790;SDS011;48830;53.426;10.300;2023-04-03T08:02:50;5.97;;;1.50;;
62790;SDS011;48830;53.426;10.300;2023-04-03T08:05:20;4.40;;;1.40;;
62790;SDS011;48830;53.426;10.300;2023-04-03T08:07:46;3.73;;;1.33;;
62790;SDS011;48830;53.426;10.300;2023-04-03T08:10:13;4.73;;;1.53;;
62790;SDS011;48830;53.426;10.300;2023-04-03T08:12:39;6.63;;;2.17;;
62790;SDS011;48830;53.426;10.300;2023-04-03T08:15:05;4.40;;;1.30;;
62790;SDS011;48830;53.426;10.300;2023-04-03T08:17:33;5.07;;;1.30;;
62790;SDS011;48830;53.426;10.300;2023-04-03T08:19:59;4.47;;;1.50;;
62790;SDS011;48830;53.426;10.300;2023-04-03T08:22:25;4.27;;;1.20;;
62790;SDS011;48830;53.426;10.300;2023-04-03T08:24:51;5.63;;;1.50;;
62790;SDS011;48830;53.426;10.300;2023-04-03T08:27:16;2.83;;;1.40;;
62790;SDS011;48830;53.426;10.300;2023-04-03T08:29:42;2.40;;;1.23;;
62790;SDS011;48830;53.426;10.300;2023-04-03T08:32:07;2.70;;;1.30;;
62790;SDS011;48830;53.426;10.300;2023-04-03T08:34:34;3.35;;;1.38;;
62790;SDS011;48830;53.426;10.300;2023-04-03T08:37:02;1.47;;;1.10;;
62790;SDS011;48830;53.426;10.300;2023-04-03T08:39:27;2.23;;;1.00;;
62790;SDS011;48830;53.426;10.300;2023-04-03T08:41:53;2.87;;;1.20;;
62790;SDS011;48830;53.426;10.300;2023-04-03T08:44:46;2.73;;;1.00;;
62790;SDS011;48830;53.426;10.300;2023-04-03T08:47:28;2.20;;;1.23;;
62790;SDS011;48830;53.426;10.300;2023-04-03T08:50:04;5.40;;;1.60;;
62790;SDS011;48830;53.426;10.300;2023-04-03T08:52:39;5.77;;;1.40;;
62790;SDS011;48830;53.426;10.300;2023-04-03T08:57:44;2.80;;;1.10;;
62790;SDS011;48830;53.426;10.300;2023-04-03T09:02:46;1.95;;;1.20;;
62790;SDS011;48830;53.426;10.300;2023-04-03T09:05:15;2.45;;;1.10;;
62790;SDS011;48830;53.426;10.300;2023-04-03T09:07:49;3.20;;;1.40;;
62790;SDS011;48830;53.426;10.300;2023-04-03T09:10:24;3.30;;;1.17;;
62790;SDS011;48830;53.426;10.300;2023-04-03T09:13:06;2.28;;;1.17;;
62790;SDS011;48830;53.426;10.300;2023-04-03T09:15:34;3.42;;;1.27;;
62790;SDS011;48830;53.426;10.300;2023-04-03T09:21:20;2.13;;;1.13;;
62790;SDS011;48830;53.426;10.300;2023-04-03T09:23:53;3.60;;;1.23;;
62790;SDS011;48830;53.426;10.300;2023-04-03T09:26:44;3.65;;;1.30;;
62790;SDS011;48830;53.426;10.300;2023-04-03T09:29:21;3.22;;;1.50;;
62790;SDS011;48830;53.426;10.300;2023-04-03T09:31:49;2.72;;;1.33;;
62790;SDS011;48830;53.426;10.300;2023-04-03T09:34:22;2.83;;;1.30;;
62790;SDS011;48830;53.426;10.300;2023-04-03T09:36:52;2.55;;;1.10;;
62790;SDS011;48830;53.426;10.300;2023-04-03T09:39:20;4.30;;;1.20;;
62790;SDS011;48830;53.426;10.300;2023-04-03T09:42:02;2.80;;;1.25;;
62790;SDS011;48830;53.426;10.300;2023-04-03T09:44:30;3.90;;;1.30;;
62790;SDS011;48830;53.426;10.300;2023-04-03T09:46:58;2.75;;;1.20;;
62790;SDS011;48830;53.426;10.300;2023-04-03T09:49:24;8.25;;;1.30;;
62790;SDS011;48830;53.426;10.300;2023-04-03T09:51:50;3.05;;;1.30;;
62790;SDS011;48830;53.426;10.300;2023-04-03T09:57:07;4.60;;;1.20;;
62790;SDS011;48830;53.426;10.300;2023-04-03T09:59:43;2.90;;;1.10;;
62790;SDS011;48830;53.426;10.300;2023-04-03T10:04:37;3.42;;;1.23;;
62790;SDS011;48830;53.426;10.300;2023-04-03T10:07:25;3.38;;;1.35;;
62790;SDS011;48830;53.426;10.300;2023-04-03T10:10:14;2.58;;;1.30;;
62790;SDS011;48830;53.426;10.300;2023-04-03T10:12:43;2.70;;;1.20;;
62790;SDS011;48830;53.426;10.300;2023-04-03T10:15:15;2.95;;;1.40;;
62790;SDS011;48830;53.426;10.300;2023-04-03T10:17:53;5.78;;;2.20;;
62790;SDS011;48830;53.426;10.300;2023-04-03T10:20:44;2.58;;;1.40;;
62790;SDS011;48830;53.426;10.300;2023-04-03T10:23:16;3.30;;;1.17;;
62790;SDS011;48830;53.426;10.300;2023-04-03T10:33:51;2.70;;;1.30;;
62790;SDS011;48830;53.426;10.300;2023-04-03T10:36:33;3.85;;;1.30;;
62790;SDS011;48830;53.426;10.300;2023-04-03T10:39:14;2.97;;;1.30;;
62790;SDS011;48830;53.426;10.300;2023-04-03T10:42:13;3.55;;;1.42;;
62790;SDS011;48830;53.426;10.300;2023-04-03T10:47:55;3.60;;;1.55;;
62790;SDS011;48830;53.426;10.300;2023-04-03T10:57:52;1.92;;;1.40;;
62790;SDS011;48830;53.426;10.300;2023-04-03T11:00:22;4.28;;;1.60;;
62790;SDS011;48830;53.426;10.300;2023-04-03T11:02:58;3.00;;;1.42;;
62790;SDS011;48830;53.426;10.300;2023-04-03T11:05:32;2.33;;;1.30;;
62790;SDS011;48830;53.426;10.300;2023-04-03T11:08:07;4.78;;;1.50;;
62790;SDS011;48830;53.426;10.300;2023-04-03T11:10:44;3.35;;;1.40;;
62790;SDS011;48830;53.426;10.300;2023-04-03T11:13:14;3.15;;;1.30;;
62790;SDS011;48830;53.426;10.300;2023-04-03T11:15:44;3.08;;;1.38;;
62790;SDS011;48830;53.426;10.300;2023-04-03T11:18:19;3.58;;;1.50;;
62790;SDS011;48830;53.426;10.300;2023-04-03T11:20:59;2.15;;;1.30;;
62790;SDS011;48830;53.426;10.300;2023-04-03T11:23:31;2.78;;;1.50;;
62790;SDS011;48830;53.426;10.300;2023-04-03T11:26:07;2.85;;;1.30;;
62790;SDS011;48830;53.426;10.300;2023-04-03T11:28:36;3.47;;;1.40;;
62790;SDS011;48830;53.426;10.300;2023-04-03T11:33:40;4.47;;;1.50;;
62790;SDS011;48830;53.426;10.300;2023-04-03T11:36:33;2.83;;;1.20;;
62790;SDS011;48830;53.426;10.300;2023-04-03T11:47:50;2.90;;;1.20;;
62790;SDS011;48830;53.426;10.300;2023-04-03T11:51:03;2.80;;;1.35;;
62790;SDS011;48830;53.426;10.300;2023-04-03T11:55:43;3.00;;;1.20;;
62790;SDS011;48830;53.426;10.300;2023-04-03T12:21:20;2.30;;;1.20;;
62790;SDS011;48830;53.426;10.300;2023-04-03T12:29:15;2.67;;;1.30;;
62790;SDS011;48830;53.426;10.300;2023-04-03T12:40:25;4.80;;;1.55;;
62790;SDS011;48830;53.426;10.300;2023-04-03T12:45:27;4.28;;;1.52;;
62790;SDS011;48830;53.426;10.300;2023-04-03T12:47:53;3.58;;;1.20;;
62790;SDS011;48830;53.426;10.300;2023-04-03T12:50:38;4.30;;;1.40;;
62790;SDS011;48830;53.426;10.300;2023-04-03T12:53:10;2.28;;;1.35;;
62790;SDS011;48830;53.426;10.300;2023-04-03T12:55:38;3.40;;;1.27;;
62790;SDS011;48830;53.426;10.300;2023-04-03T12:58:37;2.08;;;1.35;;
62790;SDS011;48830;53.426;10.300;2023-04-03T13:03:25;2.97;;;1.25;;
62790;SDS011;48830;53.426;10.300;2023-04-03T13:05:53;3.30;;;1.50;;
62790;SDS011;48830;53.426;10.300;2023-04-03T13:08:22;2.67;;;1.00;;
62790;SDS011;48830;53.426;10.300;2023-04-03T13:10:52;3.92;;;1.30;;
62790;SDS011;48830;53.426;10.300;2023-04-03T13:13:18;2.28;;;1.25;;
62790;SDS011;48830;53.426;10.300;2023-04-03T13:15:45;2.47;;;1.40;;
62790;SDS011;48830;53.426;10.300;2023-04-03T13:18:24;3.75;;;1.50;;
62790;SDS011;48830;53.426;10.300;2023-04-03T13:21:13;4.13;;;1.50;;
62790;SDS011;48830;53.426;10.300;2023-04-03T13:23:42;2.33;;;1.30;;
62790;SDS011;48830;53.426;10.300;2023-04-03T13:26:12;5.32;;;1.50;;
62790;SDS011;48830;53.426;10.300;2023-04-03T13:28:42;2.25;;;1.20;;
62790;SDS011;48830;53.426;10.300;2023-04-03T13:33:39;4.18;;;1.25;;
62790;SDS011;48830;53.426;10.300;2023-04-03T13:36:19;4.15;;;1.45;;
62790;SDS011;48830;53.426;10.300;2023-04-03T13:38:57;3.88;;;1.30;;
62790;SDS011;48830;53.426;10.300;2023-04-03T13:41:33;3.55;;;1.40;;
62790;SDS011;48830;53.426;10.300;2023-04-03T13:44:43;2.78;;;1.30;;
62790;SDS011;48830;53.426;10.300;2023-04-03T13:46:53;1.98;;;1.23;;
62790;SDS011;48830;53.426;10.300;2023-04-03T13:49:34;3.35;;;1.30;;
62790;SDS011;48830;53.426;10.300;2023-04-03T13:52:47;4.88;;;1.35;;
62790;SDS011;48830;53.426;10.300;2023-04-03T13:54:54;1.95;;;1.10;;
62790;SDS011;48830;53.426;10.300;2023-04-03T13:57:23;2.63;;;1.17;;
62790;SDS011;48830;53.426;10.300;2023-04-03T13:59:48;3.40;;;1.35;;
62790;SDS011;48830;53.426;10.300;2023-04-03T14:07:08;3.10;;;1.55;;
62790;SDS011;48830;53.426;10.300;2023-04-03T14:09:34;4.10;;;1.55;;
62790;SDS011;48830;53.426;10.300;2023-04-03T14:12:02;2.15;;;1.30;;
62790;SDS011;48830;53.426;10.300;2023-04-03T14:14:32;3.42;;;1.17;;
62790;SDS011;48830;53.426;10.300;2023-04-03T14:17:00;4.50;;;1.38;;
62790;SDS011;48830;53.426;10.300;2023-04-03T14:19:29;3.88;;;1.75;;
62790;SDS011;48830;53.426;10.300;2023-04-03T14:21:57;2.75;;;1.40;;
62790;SDS011;48830;53.426;10.300;2023-04-03T14:24:24;3.55;;;1.30;;
62790;SDS011;48830;53.426;10.300;2023-04-03T14:26:51;3.50;;;1.38;;
62790;SDS011;48830;53.426;10.300;2023-04-03T14:29:19;2.90;;;1.50;;
62790;SDS011;48830;53.426;10.300;2023-04-03T14:31:48;2.85;;;1.30;;
62790;SDS011;48830;53.426;10.300;2023-04-03T14:34:15;4.22;;;1.60;;
62790;SDS011;48830;53.426;10.300;2023-04-03T14:36:41;4.43;;;1.38;;
62790;SDS011;48830;53.426;10.300;2023-04-03T14:39:10;3.40;;;1.40;;
62790;SDS011;48830;53.426;10.300;2023-04-03T14:41:41;4.28;;;1.40;;
62790;SDS011;48830;53.426;10.300;2023-04-03T14:44:07;2.83;;;1.25;;
62790;SDS011;48830;53.426;10.300;2023-04-03T14:46:37;2.90;;;1.40;;
62790;SDS011;48830;53.426;10.300;2023-04-03T14:49:14;3.17;;;1.40;;
62790;SDS011;48830;53.426;10.300;2023-04-03T14:51:43;2.05;;;1.27;;
62790;SDS011;48830;53.426;10.300;2023-04-03T14:54:16;4.22;;;1.17;;
62790;SDS011;48830;53.426;10.300;2023-04-03T14:56:44;2.63;;;1.33;;
62790;SDS011;48830;53.426;10.300;2023-04-03T14:59:13;4.07;;;1.40;;
62790;SDS011;48830;53.426;10.300;2023-04-03T15:01:39;3.13;;;1.42;;
62790;SDS011;48830;53.426;10.300;2023-04-03T15:04:09;2.40;;;1.23;;
62790;SDS011;48830;53.426;10.300;2023-04-03T15:06:37;3.15;;;1.40;;
62790;SDS011;48830;53.426;10.300;2023-04-03T15:09:02;2.67;;;1.38;;
62790;SDS011;48830;53.426;10.300;2023-04-03T15:11:28;3.33;;;1.20;;
62790;SDS011;48830;53.426;10.300;2023-04-03T15:13:54;1.90;;;1.20;;
62790;SDS011;48830;53.426;10.300;2023-04-03T15:16:19;1.75;;;1.10;;
62790;SDS011;48830;53.426;10.300;2023-04-03T15:18:45;2.58;;;1.38;;
62790;SDS011;48830;53.426;10.300;2023-04-03T15:21:12;2.17;;;1.27;;
62790;SDS011;48830;53.426;10.300;2023-04-03T15:23:38;2.28;;;1.30;;
62790;SDS011;48830;53.426;10.300;2023-04-03T15:26:03;3.40;;;1.50;;
62790;SDS011;48830;53.426;10.300;2023-04-03T15:31:05;2.53;;;1.30;;
62790;SDS011;48830;53.426;10.300;2023-04-03T15:33:32;3.22;;;1.30;;
62790;SDS011;48830;53.426;10.300;2023-04-03T15:35:59;4.32;;;1.48;;
62790;SDS011;48830;53.426;10.300;2023-04-03T15:38:25;4.75;;;1.48;;
62790;SDS011;48830;53.426;10.300;2023-04-03T15:40:50;2.63;;;1.30;;
62790;SDS011;48830;53.426;10.300;2023-04-03T15:43:16;2.90;;;1.38;;
62790;SDS011;48830;53.426;10.300;2023-04-03T15:45:41;4.10;;;1.50;;
62790;SDS011;48830;53.426;10.300;2023-04-03T15:48:07;4.00;;;1.50;;
62790;SDS011;48830;53.426;10.300;2023-04-03T15:50:33;3.65;;;1.58;;
62790;SDS011;48830;53.426;10.300;2023-04-03T15:52:59;2.67;;;1.30;;
62790;SDS011;48830;53.426;10.300;2023-04-03T15:55:27;3.00;;;1.40;;
62790;SDS011;48830;53.426;10.300;2023-04-03T15:57:54;3.17;;;1.30;;
62790;SDS011;48830;53.426;10.300;2023-04-03T16:00:21;2.88;;;1.40;;
62790;SDS011;48830;53.426;10.300;2023-04-03T16:02:48;3.80;;;1.60;;
62790;SDS011;48830;53.426;10.300;2023-04-03T16:05:17;2.87;;;1.30;;
62790;SDS011;48830;53.426;10.300;2023-04-03T16:07:44;2.37;;;1.20;;
62790;SDS011;48830;53.426;10.300;2023-04-03T16:10:10;2.43;;;1.30;;
62790;SDS011;48830;53.426;10.300;2023-04-03T16:12:37;5.20;;;1.40;;
62790;SDS011;48830;53.426;10.300;2023-04-03T16:15:03;3.77;;;1.77;;
62790;SDS011;48830;53.426;10.300;2023-04-03T16:17:29;4.73;;;1.50;;
62790;SDS011;48830;53.426;10.300;2023-04-03T16:19:55;4.00;;;1.50;;
62790;SDS011;48830;53.426;10.300;2023-04-03T16:22:21;2.90;;;1.27;;
62790;SDS011;48830;53.426;10.300;2023-04-03T16:24:48;6.40;;;1.73;;